sensor_id;sensor_type;location;lat;lon;timestamp;temperature;humidity
7331;DHT22;3706;49.198;7.064;2022-07-06T00:01:21;13.70;99.90
7331;DHT22;3706;49.198;7.064;2022-07-06T00:03:48;13.50;99.90
7331;DHT22;3706;49.198;7.064;2022-07-06T00:06:15;13.40;99.90
7331;DHT22;3706;49.198;7.064;2022-07-06T00:08:44;13.30;99.90
7331;DHT22;3706;49.198;7.064;2022-07-06T00:11:11;13.30;99.90
7331;DHT22;3706;49.198;7.064;2022-07-06T00:13:38;13.10;99.90
7331;DHT22;3706;49.198;7.064;2022-07-06T00:16:05;13.10;99.90
7331;DHT22;3706;49.198;7.064;2022-07-06T00:18:33;13.10;99.90
7331;DHT22;3706;49.198;7.064;2022-07-06T00:21:00;13.00;99.90
7331;DHT22;3706;49.198;7.064;2022-07-06T00:23:27;13.00;99.90
7331;DHT22;3706;49.198;7.064;2022-07-06T00:25:55;13.00;99.90
7331;DHT22;3706;49.198;7.064;2022-07-06T00:28:22;13.00;99.90
7331;DHT22;3706;49.198;7.064;2022-07-06T00:30:49;13.10;99.90
7331;DHT22;3706;49.198;7.064;2022-07-06T00:33:16;13.30;99.90
7331;DHT22;3706;49.198;7.064;2022-07-06T00:35:43;13.40;99.90
7331;DHT22;3706;49.198;7.064;2022-07-06T00:38:10;13.60;99.90
7331;DHT22;3706;49.198;7.064;2022-07-06T00:40:37;13.60;99.90
7331;DHT22;3706;49.198;7.064;2022-07-06T00:43:05;13.50;99.90
7331;DHT22;3706;49.198;7.064;2022-07-06T00:45:33;13.40;99.90
7331;DHT22;3706;49.198;7.064;2022-07-06T00:48:00;13.20;99.90
7331;DHT22;3706;49.198;7.064;2022-07-06T00:50:27;13.10;99.90
7331;DHT22;3706;49.198;7.064;2022-07-06T00:52:59;13.00;99.90
7331;DHT22;3706;49.198;7.064;2022-07-06T00:55:28;12.80;99.90
7331;DHT22;3706;49.198;7.064;2022-07-06T00:57:56;12.60;99.90
7331;DHT22;3706;49.198;7.064;2022-07-06T01:00:26;12.50;99.90
7331;DHT22;3706;49.198;7.064;2022-07-06T01:02:53;12.40;99.90
7331;DHT22;3706;49.198;7.064;2022-07-06T01:05:21;12.30;99.90
7331;DHT22;3706;49.198;7.064;2022-07-06T01:07:49;12.20;99.90
7331;DHT22;3706;49.198;7.064;2022-07-06T01:10:18;12.20;99.90
7331;DHT22;3706;49.198;7.064;2022-07-06T01:12:46;12.20;99.90
7331;DHT22;3706;49.198;7.064;2022-07-06T01:15:16;12.20;99.90
7331;DHT22;3706;49.198;7.064;2022-07-06T01:17:45;12.30;99.90
7331;DHT22;3706;49.198;7.064;2022-07-06T01:20:14;12.30;99.90
7331;DHT22;3706;49.198;7.064;2022-07-06T01:22:41;12.20;99.90
7331;DHT22;3706;49.198;7.064;2022-07-06T01:25:09;12.10;99.90
7331;DHT22;3706;49.198;7.064;2022-07-06T01:27:37;12.10;99.90
7331;DHT22;3706;49.198;7.064;2022-07-06T01:30:05;12.10;99.90
7331;DHT22;3706;49.198;7.064;2022-07-06T01:32:33;12.10;99.90
7331;DHT22;3706;49.198;7.064;2022-07-06T01:35:00;12.20;99.90
7331;DHT22;3706;49.198;7.064;2022-07-06T01:37:29;12.30;99.90
7331;DHT22;3706;49.198;7.064;2022-07-06T01:39:58;12.20;99.90
7331;DHT22;3706;49.198;7.064;2022-07-06T01:42:26;12.30;99.90
7331;DHT22;3706;49.198;7.064;2022-07-06T01:44:53;12.30;99.90
7331;DHT22;3706;49.198;7.064;2022-07-06T01:47:20;12.20;99.90
7331;DHT22;3706;49.198;7.064;2022-07-06T01:49:47;12.10;99.90
7331;DHT22;3706;49.198;7.064;2022-07-06T01:52:15;12.00;99.90
7331;DHT22;3706;49.198;7.064;2022-07-06T01:54:43;11.90;99.90
7331;DHT22;3706;49.198;7.064;2022-07-06T01:57:10;11.80;99.90
7331;DHT22;3706;49.198;7.064;2022-07-06T01:59:37;11.80;99.90
7331;DHT22;3706;49.198;7.064;2022-07-06T02:02:04;11.70;99.90
7331;DHT22;3706;49.198;7.064;2022-07-06T02:04:31;11.60;99.90
7331;DHT22;3706;49.198;7.064;2022-07-06T02:06:58;11.50;99.90
7331;DHT22;3706;49.198;7.064;2022-07-06T02:09:26;11.50;99.90
7331;DHT22;3706;49.198;7.064;2022-07-06T02:11:55;11.60;99.90
7331;DHT22;3706;49.198;7.064;2022-07-06T02:14:22;11.70;99.90
7331;DHT22;3706;49.198;7.064;2022-07-06T02:16:49;11.70;99.90
7331;DHT22;3706;49.198;7.064;2022-07-06T02:19:16;11.70;99.90
7331;DHT22;3706;49.198;7.064;2022-07-06T02:21:43;11.60;99.90
7331;DHT22;3706;49.198;7.064;2022-07-06T02:24:10;11.60;99.90
7331;DHT22;3706;49.198;7.064;2022-07-06T02:26:37;11.40;99.90
7331;DHT22;3706;49.198;7.064;2022-07-06T02:29:05;11.30;99.90
7331;DHT22;3706;49.198;7.064;2022-07-06T02:31:32;11.30;99.90
7331;DHT22;3706;49.198;7.064;2022-07-06T02:34:02;11.40;99.90
7331;DHT22;3706;49.198;7.064;2022-07-06T02:36:29;11.40;99.90
7331;DHT22;3706;49.198;7.064;2022-07-06T02:38:56;11.50;99.90
7331;DHT22;3706;49.198;7.064;2022-07-06T02:41:23;11.40;99.90
7331;DHT22;3706;49.198;7.064;2022-07-06T02:43:50;11.30;99.90
7331;DHT22;3706;49.198;7.064;2022-07-06T02:46:19;11.40;99.90
7331;DHT22;3706;49.198;7.064;2022-07-06T02:48:46;11.50;99.90
7331;DHT22;3706;49.198;7.064;2022-07-06T02:51:13;11.40;99.90
7331;DHT22;3706;49.198;7.064;2022-07-06T02:53:40;11.40;99.90
7331;DHT22;3706;49.198;7.064;2022-07-06T02:56:07;11.30;99.90
7331;DHT22;3706;49.198;7.064;2022-07-06T02:58:34;11.30;99.90
7331;DHT22;3706;49.198;7.064;2022-07-06T03:01:01;11.30;99.90
7331;DHT22;3706;49.198;7.064;2022-07-06T03:03:29;11.20;99.90
7331;DHT22;3706;49.198;7.064;2022-07-06T03:05:56;11.20;99.90
7331;DHT22;3706;49.198;7.064;2022-07-06T03:08:23;11.20;99.90
7331;DHT22;3706;49.198;7.064;2022-07-06T03:10:50;11.30;99.90
7331;DHT22;3706;49.198;7.064;2022-07-06T03:13:17;11.30;99.90
7331;DHT22;3706;49.198;7.064;2022-07-06T03:15:44;11.30;99.90
7331;DHT22;3706;49.198;7.064;2022-07-06T03:18:11;11.30;99.90
7331;DHT22;3706;49.198;7.064;2022-07-06T03:20:39;11.30;99.90
7331;DHT22;3706;49.198;7.064;2022-07-06T03:23:06;11.40;99.90
7331;DHT22;3706;49.198;7.064;2022-07-06T03:25:33;11.40;99.90
7331;DHT22;3706;49.198;7.064;2022-07-06T03:28:00;11.20;99.90
7331;DHT22;3706;49.198;7.064;2022-07-06T03:30:27;11.20;99.90
7331;DHT22;3706;49.198;7.064;2022-07-06T03:32:54;11.20;99.90
7331;DHT22;3706;49.198;7.064;2022-07-06T03:35:22;11.20;99.90
7331;DHT22;3706;49.198;7.064;2022-07-06T03:37:50;11.20;99.90
7331;DHT22;3706;49.198;7.064;2022-07-06T03:40:17;11.20;99.90
7331;DHT22;3706;49.198;7.064;2022-07-06T03:42:44;11.20;99.90
7331;DHT22;3706;49.198;7.064;2022-07-06T03:45:11;11.10;99.90
7331;DHT22;3706;49.198;7.064;2022-07-06T03:47:38;11.10;99.90
7331;DHT22;3706;49.198;7.064;2022-07-06T03:50:06;11.10;99.90
7331;DHT22;3706;49.198;7.064;2022-07-06T03:52:34;11.10;99.90
7331;DHT22;3706;49.198;7.064;2022-07-06T03:55:07;11.10;99.90
7331;DHT22;3706;49.198;7.064;2022-07-06T03:57:35;11.10;99.90
7331;DHT22;3706;49.198;7.064;2022-07-06T04:10:09;11.00;99.90
7331;DHT22;3706;49.198;7.064;2022-07-06T04:12:40;11.20;99.90
7331;DHT22;3706;49.198;7.064;2022-07-06T04:15:08;11.20;99.90
7331;DHT22;3706;49.198;7.064;2022-07-06T04:17:35;11.20;99.90
7331;DHT22;3706;49.198;7.064;2022-07-06T04:20:22;11.30;99.90
7331;DHT22;3706;49.198;7.064;2022-07-06T04:22:50;11.40;99.90
7331;DHT22;3706;49.198;7.064;2022-07-06T04:25:19;11.40;99.90
7331;DHT22;3706;49.198;7.064;2022-07-06T04:27:46;11.40;99.90
7331;DHT22;3706;49.198;7.064;2022-07-06T04:30:13;11.40;99.90
7331;DHT22;3706;49.198;7.064;2022-07-06T04:32:40;11.50;99.90
7331;DHT22;3706;49.198;7.064;2022-07-06T04:35:08;11.70;99.90
7331;DHT22;3706;49.198;7.064;2022-07-06T04:37:35;11.90;99.90
7331;DHT22;3706;49.198;7.064;2022-07-06T04:40:03;11.90;99.90
7331;DHT22;3706;49.198;7.064;2022-07-06T04:42:32;12.10;99.90
7331;DHT22;3706;49.198;7.064;2022-07-06T04:44:59;12.50;99.90
7331;DHT22;3706;49.198;7.064;2022-07-06T04:47:26;13.10;99.90
7331;DHT22;3706;49.198;7.064;2022-07-06T04:49:53;13.70;99.90
7331;DHT22;3706;49.198;7.064;2022-07-06T04:52:20;14.30;99.90
7331;DHT22;3706;49.198;7.064;2022-07-06T04:54:47;15.00;99.90
7331;DHT22;3706;49.198;7.064;2022-07-06T04:57:14;15.80;99.90
7331;DHT22;3706;49.198;7.064;2022-07-06T04:59:42;16.60;99.90
7331;DHT22;3706;49.198;7.064;2022-07-06T05:02:12;17.20;99.90
7331;DHT22;3706;49.198;7.064;2022-07-06T05:04:39;17.90;99.90
7331;DHT22;3706;49.198;7.064;2022-07-06T05:07:06;18.70;99.90
7331;DHT22;3706;49.198;7.064;2022-07-06T05:09:33;19.40;99.90
7331;DHT22;3706;49.198;7.064;2022-07-06T05:12:00;20.00;99.90
7331;DHT22;3706;49.198;7.064;2022-07-06T05:14:27;20.70;99.90
7331;DHT22;3706;49.198;7.064;2022-07-06T05:16:56;21.20;99.90
7331;DHT22;3706;49.198;7.064;2022-07-06T05:19:22;21.60;99.90
7331;DHT22;3706;49.198;7.064;2022-07-06T05:21:49;22.10;98.50
7331;DHT22;3706;49.198;7.064;2022-07-06T05:24:17;22.60;96.70
7331;DHT22;3706;49.198;7.064;2022-07-06T05:26:44;23.00;94.60
7331;DHT22;3706;49.198;7.064;2022-07-06T05:29:11;23.30;92.60
7331;DHT22;3706;49.198;7.064;2022-07-06T05:31:38;23.70;90.80
7331;DHT22;3706;49.198;7.064;2022-07-06T05:34:07;23.80;88.70
7331;DHT22;3706;49.198;7.064;2022-07-06T05:36:35;23.90;87.10
7331;DHT22;3706;49.198;7.064;2022-07-06T05:39:03;23.90;85.10
7331;DHT22;3706;49.198;7.064;2022-07-06T05:41:31;23.90;84.30
7331;DHT22;3706;49.198;7.064;2022-07-06T05:43:58;24.00;83.90
7331;DHT22;3706;49.198;7.064;2022-07-06T05:46:39;24.10;81.70
7331;DHT22;3706;49.198;7.064;2022-07-06T05:49:10;24.00;82.60
7331;DHT22;3706;49.198;7.064;2022-07-06T05:51:54;24.30;80.60
7331;DHT22;3706;49.198;7.064;2022-07-06T05:54:21;24.60;77.30
7331;DHT22;3706;49.198;7.064;2022-07-06T05:56:49;24.80;75.00
7331;DHT22;3706;49.198;7.064;2022-07-06T05:59:16;25.10;72.10
7331;DHT22;3706;49.198;7.064;2022-07-06T06:01:43;25.10;70.30
7331;DHT22;3706;49.198;7.064;2022-07-06T06:04:11;24.90;70.60
7331;DHT22;3706;49.198;7.064;2022-07-06T06:06:38;25.20;69.50
7331;DHT22;3706;49.198;7.064;2022-07-06T06:09:05;25.40;68.90
7331;DHT22;3706;49.198;7.064;2022-07-06T06:11:32;25.70;66.90
7331;DHT22;3706;49.198;7.064;2022-07-06T06:13:59;25.70;66.10
7331;DHT22;3706;49.198;7.064;2022-07-06T06:16:26;25.80;66.00
7331;DHT22;3706;49.198;7.064;2022-07-06T06:18:53;26.10;65.20
7331;DHT22;3706;49.198;7.064;2022-07-06T06:21:21;26.40;65.00
7331;DHT22;3706;49.198;7.064;2022-07-06T06:23:51;26.90;62.10
7331;DHT22;3706;49.198;7.064;2022-07-06T06:26:18;27.60;60.10
7331;DHT22;3706;49.198;7.064;2022-07-06T06:28:46;27.90;59.10
7331;DHT22;3706;49.198;7.064;2022-07-06T06:31:13;28.10;59.50
7331;DHT22;3706;49.198;7.064;2022-07-06T06:33:40;28.40;58.00
7331;DHT22;3706;49.198;7.064;2022-07-06T06:36:07;28.40;57.20
7331;DHT22;3706;49.198;7.064;2022-07-06T06:38:36;28.20;57.10
7331;DHT22;3706;49.198;7.064;2022-07-06T06:41:04;28.00;57.40
7331;DHT22;3706;49.198;7.064;2022-07-06T06:43:31;27.90;57.30
7331;DHT22;3706;49.198;7.064;2022-07-06T06:46:01;27.90;56.30
7331;DHT22;3706;49.198;7.064;2022-07-06T06:48:28;27.70;56.40
7331;DHT22;3706;49.198;7.064;2022-07-06T06:50:57;27.40;56.90
7331;DHT22;3706;49.198;7.064;2022-07-06T06:53:24;27.40;57.40
7331;DHT22;3706;49.198;7.064;2022-07-06T06:55:52;27.60;56.70
7331;DHT22;3706;49.198;7.064;2022-07-06T06:58:20;27.70;56.80
7331;DHT22;3706;49.198;7.064;2022-07-06T07:00:49;28.00;56.40
7331;DHT22;3706;49.198;7.064;2022-07-06T07:03:17;28.20;55.10
7331;DHT22;3706;49.198;7.064;2022-07-06T07:05:44;28.20;54.90
7331;DHT22;3706;49.198;7.064;2022-07-06T07:08:11;28.20;55.10
7331;DHT22;3706;49.198;7.064;2022-07-06T07:10:39;28.60;54.80
7331;DHT22;3706;49.198;7.064;2022-07-06T07:13:08;28.70;54.30
7331;DHT22;3706;49.198;7.064;2022-07-06T07:15:35;28.80;54.20
7331;DHT22;3706;49.198;7.064;2022-07-06T07:18:02;29.10;54.80
7331;DHT22;3706;49.198;7.064;2022-07-06T07:20:29;29.90;52.10
7331;DHT22;3706;49.198;7.064;2022-07-06T07:22:58;30.00;51.90
7331;DHT22;3706;49.198;7.064;2022-07-06T07:25:25;30.50;51.10
7331;DHT22;3706;49.198;7.064;2022-07-06T07:27:53;31.20;49.80
7331;DHT22;3706;49.198;7.064;2022-07-06T07:30:22;31.10;49.60
7331;DHT22;3706;49.198;7.064;2022-07-06T07:32:58;31.30;49.60
7331;DHT22;3706;49.198;7.064;2022-07-06T07:35:49;31.30;48.40
7331;DHT22;3706;49.198;7.064;2022-07-06T07:38:20;31.40;48.20
7331;DHT22;3706;49.198;7.064;2022-07-06T07:40:49;31.40;48.10
7331;DHT22;3706;49.198;7.064;2022-07-06T07:43:16;31.50;48.00
7331;DHT22;3706;49.198;7.064;2022-07-06T07:45:44;31.60;48.20
7331;DHT22;3706;49.198;7.064;2022-07-06T07:48:12;31.50;47.70
7331;DHT22;3706;49.198;7.064;2022-07-06T07:50:40;31.40;47.90
7331;DHT22;3706;49.198;7.064;2022-07-06T07:53:09;31.40;48.30
7331;DHT22;3706;49.198;7.064;2022-07-06T07:55:36;31.40;47.90
7331;DHT22;3706;49.198;7.064;2022-07-06T07:58:03;31.50;47.20
7331;DHT22;3706;49.198;7.064;2022-07-06T08:00:30;31.60;47.40
7331;DHT22;3706;49.198;7.064;2022-07-06T08:03:02;31.80;47.00
7331;DHT22;3706;49.198;7.064;2022-07-06T08:05:29;32.00;45.50
7331;DHT22;3706;49.198;7.064;2022-07-06T08:07:56;32.00;45.60
7331;DHT22;3706;49.198;7.064;2022-07-06T08:10:23;32.00;45.30
7331;DHT22;3706;49.198;7.064;2022-07-06T08:12:50;31.90;45.40
7331;DHT22;3706;49.198;7.064;2022-07-06T08:15:17;31.70;45.60
7331;DHT22;3706;49.198;7.064;2022-07-06T08:17:44;31.90;45.60
7331;DHT22;3706;49.198;7.064;2022-07-06T08:20:13;32.40;45.20
7331;DHT22;3706;49.198;7.064;2022-07-06T08:22:41;32.90;44.40
7331;DHT22;3706;49.198;7.064;2022-07-06T08:25:08;32.90;43.60
7331;DHT22;3706;49.198;7.064;2022-07-06T08:27:35;32.80;44.60
7331;DHT22;3706;49.198;7.064;2022-07-06T08:30:02;32.90;43.70
7331;DHT22;3706;49.198;7.064;2022-07-06T08:32:30;33.10;42.80
7331;DHT22;3706;49.198;7.064;2022-07-06T08:34:59;32.70;42.90
7331;DHT22;3706;49.198;7.064;2022-07-06T08:37:28;32.50;43.60
7331;DHT22;3706;49.198;7.064;2022-07-06T08:39:55;32.30;44.10
7331;DHT22;3706;49.198;7.064;2022-07-06T08:42:24;32.00;43.90
7331;DHT22;3706;49.198;7.064;2022-07-06T08:45:10;31.70;44.80
7331;DHT22;3706;49.198;7.064;2022-07-06T08:50:57;31.20;46.10
7331;DHT22;3706;49.198;7.064;2022-07-06T08:53:26;31.30;45.90
7331;DHT22;3706;49.198;7.064;2022-07-06T08:55:54;31.20;46.20
7331;DHT22;3706;49.198;7.064;2022-07-06T08:58:56;31.00;46.50
7331;DHT22;3706;49.198;7.064;2022-07-06T09:01:40;30.90;46.80
7331;DHT22;3706;49.198;7.064;2022-07-06T09:04:09;31.40;46.40
7331;DHT22;3706;49.198;7.064;2022-07-06T09:06:43;31.90;45.70
7331;DHT22;3706;49.198;7.064;2022-07-06T09:09:18;32.50;44.20
7331;DHT22;3706;49.198;7.064;2022-07-06T09:11:45;33.00;43.40
7331;DHT22;3706;49.198;7.064;2022-07-06T09:14:12;33.40;42.40
7331;DHT22;3706;49.198;7.064;2022-07-06T09:16:40;33.50;41.80
7331;DHT22;3706;49.198;7.064;2022-07-06T09:19:11;33.30;42.20
7331;DHT22;3706;49.198;7.064;2022-07-06T09:21:49;32.80;43.60
7331;DHT22;3706;49.198;7.064;2022-07-06T09:27:25;33.20;43.20
7331;DHT22;3706;49.198;7.064;2022-07-06T09:30:27;33.60;42.70
7331;DHT22;3706;49.198;7.064;2022-07-06T09:33:31;34.00;41.00
7331;DHT22;3706;49.198;7.064;2022-07-06T09:36:17;33.50;41.50
7331;DHT22;3706;49.198;7.064;2022-07-06T09:39:15;33.60;41.80
7331;DHT22;3706;49.198;7.064;2022-07-06T09:42:06;33.40;41.20
7331;DHT22;3706;49.198;7.064;2022-07-06T09:44:37;32.80;42.20
7331;DHT22;3706;49.198;7.064;2022-07-06T09:47:06;32.70;42.30
7331;DHT22;3706;49.198;7.064;2022-07-06T09:49:34;32.80;42.60
7331;DHT22;3706;49.198;7.064;2022-07-06T09:52:05;32.80;42.80
7331;DHT22;3706;49.198;7.064;2022-07-06T09:54:33;32.50;43.10
7331;DHT22;3706;49.198;7.064;2022-07-06T09:57:03;32.20;43.30
7331;DHT22;3706;49.198;7.064;2022-07-06T09:59:32;31.90;43.30
7331;DHT22;3706;49.198;7.064;2022-07-06T10:02:01;32.00;42.50
7331;DHT22;3706;49.198;7.064;2022-07-06T10:04:29;32.40;41.90
7331;DHT22;3706;49.198;7.064;2022-07-06T10:06:58;32.50;41.60
7331;DHT22;3706;49.198;7.064;2022-07-06T10:09:26;32.70;40.50
7331;DHT22;3706;49.198;7.064;2022-07-06T10:12:12;32.80;40.90
7331;DHT22;3706;49.198;7.064;2022-07-06T10:15:00;32.90;40.80
7331;DHT22;3706;49.198;7.064;2022-07-06T10:17:41;32.80;40.40
7331;DHT22;3706;49.198;7.064;2022-07-06T10:20:27;32.60;40.00
7331;DHT22;3706;49.198;7.064;2022-07-06T10:23:15;32.10;41.60
7331;DHT22;3706;49.198;7.064;2022-07-06T10:26:19;31.40;42.10
7331;DHT22;3706;49.198;7.064;2022-07-06T10:32:17;32.30;41.20
7331;DHT22;3706;49.198;7.064;2022-07-06T10:34:45;33.20;40.10
7331;DHT22;3706;49.198;7.064;2022-07-06T10:37:22;33.50;40.20
7331;DHT22;3706;49.198;7.064;2022-07-06T10:39:56;34.00;39.50
7331;DHT22;3706;49.198;7.064;2022-07-06T10:45:52;35.00;38.00
7331;DHT22;3706;49.198;7.064;2022-07-06T10:51:44;34.00;38.30
7331;DHT22;3706;49.198;7.064;2022-07-06T10:54:11;34.00;39.60
7331;DHT22;3706;49.198;7.064;2022-07-06T10:56:40;34.00;39.50
7331;DHT22;3706;49.198;7.064;2022-07-06T10:59:11;33.70;40.40
7331;DHT22;3706;49.198;7.064;2022-07-06T11:01:38;33.40;41.00
7331;DHT22;3706;49.198;7.064;2022-07-06T11:04:07;33.50;41.40
7331;DHT22;3706;49.198;7.064;2022-07-06T11:06:36;33.60;40.30
7331;DHT22;3706;49.198;7.064;2022-07-06T11:09:04;33.90;40.50
7331;DHT22;3706;49.198;7.064;2022-07-06T11:11:40;34.60;39.70
